createdAt,value
2023-03-16T00:00:45.855Z,55.22
2023-03-16T00:03:19.119Z,55.35
2023-03-16T00:05:49.826Z,55.71
2023-03-16T00:08:17.611Z,56.56
2023-03-16T00:10:47.564Z,56.76
2023-03-16T00:13:14.901Z,57.45
2023-03-16T00:15:41.906Z,57.93
2023-03-16T00:18:08.458Z,57.47
2023-03-16T00:20:35.260Z,57.40
2023-03-16T00:23:02.747Z,58.99
2023-03-16T00:25:29.714Z,58.29
2023-03-16T00:27:56.176Z,57.97
2023-03-16T00:30:22.952Z,57.40
2023-03-16T00:32:49.510Z,58.01
2023-03-16T00:35:17.207Z,58.11
2023-03-16T00:37:44.324Z,58.84
2023-03-16T00:40:12.608Z,58.79
2023-03-16T00:42:39.126Z,60.12
2023-03-16T00:45:05.976Z,59.53
2023-03-16T00:47:34.792Z,61.10
2023-03-16T00:50:01.834Z,60.84
2023-03-16T00:52:28.897Z,60.71
2023-03-16T00:54:57.577Z,60.82
2023-03-16T00:57:25.200Z,60.86
2023-03-16T00:59:52.504Z,61.39
2023-03-16T01:02:23.268Z,61.81
2023-03-16T01:04:50.400Z,61.88
2023-03-16T01:07:16.895Z,61.32
2023-03-16T01:09:43.956Z,60.62
2023-03-16T01:12:16.173Z,60.67
2023-03-16T01:14:47.548Z,59.55
2023-03-16T01:17:15.452Z,59.54
2023-03-16T01:19:42.784Z,59.05
2023-03-16T01:22:11.691Z,59.25
2023-03-16T01:24:39.318Z,59.36
2023-03-16T01:27:06.179Z,57.31
2023-03-16T01:29:33.135Z,57.61
2023-03-16T01:32:00.322Z,58.16
2023-03-16T01:34:27.070Z,58.87
2023-03-16T01:36:54.348Z,58.73
2023-03-16T01:39:30.998Z,60.36
2023-03-16T01:41:57.615Z,61.17
2023-03-16T01:44:30.423Z,60.94
2023-03-16T01:47:00.565Z,61.73
2023-03-16T01:49:29.984Z,61.95
2023-03-16T01:52:02.630Z,63.24
2023-03-16T01:54:33.890Z,62.85
2023-03-16T01:57:39.233Z,63.08
2023-03-16T02:00:23.556Z,64.35
2023-03-16T02:03:11.614Z,64.81
2023-03-16T02:05:48.864Z,65.03
2023-03-16T02:08:16.635Z,65.49
2023-03-16T02:10:45.003Z,66.33
2023-03-16T02:13:12.633Z,66.03
2023-03-16T02:15:39.595Z,65.51
2023-03-16T02:18:07.746Z,65.61
2023-03-16T02:20:37.647Z,65.80
2023-03-16T02:23:05.855Z,65.14
2023-03-16T02:25:35.356Z,65.87
2023-03-16T02:28:15.463Z,66.36
2023-03-16T02:30:44.096Z,65.44
2023-03-16T02:33:11.374Z,65.08
2023-03-16T02:35:37.888Z,65.50
2023-03-16T02:38:04.562Z,66.06
2023-03-16T02:40:36.794Z,66.68
2023-03-16T02:43:10.756Z,67.38
2023-03-16T02:45:55.549Z,66.88
2023-03-16T02:48:32.260Z,67.70
2023-03-16T02:50:59.249Z,67.78
2023-03-16T02:53:27.244Z,68.30
2023-03-16T02:55:55.867Z,68.35
2023-03-16T02:58:23.042Z,68.36
2023-03-16T03:00:49.809Z,68.32
2023-03-16T03:03:17.140Z,67.80
2023-03-16T03:05:43.621Z,68.33
2023-03-16T03:08:10.181Z,69.50
2023-03-16T03:10:37.581Z,69.34
2023-03-16T03:13:04.072Z,70.21
2023-03-16T03:15:30.559Z,71.08
2023-03-16T03:18:04.865Z,70.21
2023-03-16T03:20:31.953Z,70.14
2023-03-16T03:22:58.487Z,70.29
2023-03-16T03:25:25.192Z,71.19
2023-03-16T03:27:57.051Z,71.79
2023-03-16T03:30:24.920Z,72.58
2023-03-16T03:32:54.405Z,71.64
2023-03-16T03:35:21.479Z,71.13
2023-03-16T03:37:48.320Z,71.09
2023-03-16T03:40:17.089Z,71.48
2023-03-16T03:42:47.086Z,70.99
2023-03-16T03:45:13.915Z,71.54
2023-03-16T03:47:41.569Z,71.92
2023-03-16T03:50:12.411Z,70.75
2023-03-16T03:52:48.695Z,71.58
2023-03-16T03:55:15.273Z,72.26
2023-03-16T03:57:41.711Z,71.50
2023-03-16T04:00:11.628Z,71.39
2023-03-16T04:02:42.116Z,71.17
2023-03-16T04:05:17.729Z,71.04
2023-03-16T04:07:45.750Z,68.70
2023-03-16T04:10:13.570Z,70.23
2023-03-16T04:12:42.485Z,69.10
2023-03-16T04:15:12.561Z,70.57
2023-03-16T04:17:57.793Z,70.83
2023-03-16T04:20:25.746Z,70.55
2023-03-16T04:22:58.371Z,70.44
2023-03-16T04:25:26.663Z,71.28
2023-03-16T04:27:53.621Z,73.39
2023-03-16T04:30:24.206Z,73.46
2023-03-16T04:32:54.966Z,74.18
2023-03-16T04:35:22.228Z,74.39
2023-03-16T04:37:52.932Z,74.85
2023-03-16T04:40:24.485Z,74.14
2023-03-16T04:42:59.446Z,73.75
2023-03-16T04:45:26.713Z,74.31
2023-03-16T04:47:56.592Z,74.17
2023-03-16T04:50:23.492Z,74.41
2023-03-16T04:52:53.076Z,74.99
2023-03-16T04:55:20.705Z,74.48
2023-03-16T04:57:47.313Z,74.63
2023-03-16T05:00:21.026Z,74.51
2023-03-16T05:02:59.333Z,74.49
2023-03-16T05:05:25.903Z,74.92
2023-03-16T05:07:52.453Z,75.30
2023-03-16T05:10:19.346Z,75.47
2023-03-16T05:12:46.857Z,75.70
2023-03-16T05:15:13.861Z,75.69
2023-03-16T05:17:42.263Z,75.34
2023-03-16T05:20:14.063Z,75.42
2023-03-16T05:22:48.150Z,75.12
2023-03-16T05:25:25.125Z,74.76
2023-03-16T05:27:54.351Z,73.92
2023-03-16T05:30:31.144Z,73.67
2023-03-16T05:33:00.605Z,74.36
2023-03-16T05:35:28.400Z,74.57
2023-03-16T05:37:59.727Z,73.49
2023-03-16T05:40:28.165Z,68.38
2023-03-16T05:43:04.710Z,71.25
2023-03-16T05:45:35.190Z,74.02
2023-03-16T05:48:08.355Z,74.17
2023-03-16T05:50:42.007Z,73.19
2023-03-16T05:53:08.991Z,72.55
2023-03-16T05:55:37.278Z,73.43
2023-03-16T05:58:06.232Z,74.34
2023-03-16T06:00:35.145Z,73.99
2023-03-16T06:03:11.408Z,72.88
2023-03-16T06:05:38.535Z,71.40
2023-03-16T06:08:05.615Z,70.54
2023-03-16T06:10:32.613Z,68.94
2023-03-16T06:13:00.006Z,68.05
2023-03-16T06:15:29.905Z,67.61
2023-03-16T06:17:58.714Z,64.98
2023-03-16T06:20:25.267Z,64.05
2023-03-16T06:22:51.740Z,62.23
2023-03-16T06:25:18.723Z,58.98
2023-03-16T06:27:46.545Z,58.23
2023-03-16T06:30:16.510Z,55.49
2023-03-16T06:32:45.344Z,54.68
2023-03-16T06:35:12.687Z,52.86
2023-03-16T06:37:44.297Z,50.72
2023-03-16T06:40:29.767Z,49.71
2023-03-16T06:42:57.085Z,50.16
2023-03-16T06:45:25.596Z,50.61
2023-03-16T06:47:53.124Z,51.68
2023-03-16T06:50:19.807Z,52.49
2023-03-16T06:52:46.326Z,52.40
2023-03-16T06:55:14.412Z,52.75
2023-03-16T06:57:44.726Z,51.50
2023-03-16T07:00:14.077Z,49.46
2023-03-16T07:02:41.093Z,48.24
2023-03-16T07:05:11.104Z,49.42
2023-03-16T07:07:37.710Z,50.04
2023-03-16T07:10:04.331Z,53.91
2023-03-16T07:12:31.420Z,54.39
2023-03-16T07:14:57.922Z,52.85
2023-03-16T07:17:25.413Z,49.67
2023-03-16T07:19:52.479Z,48.22
2023-03-16T07:22:19.112Z,46.90
2023-03-16T07:24:45.824Z,46.90
2023-03-16T07:27:13.140Z,46.90
2023-03-16T07:29:41.363Z,45.03
2023-03-16T07:32:09.124Z,42.01
2023-03-16T07:34:38.076Z,39.44
2023-03-16T07:37:05.308Z,39.39
2023-03-16T07:39:32.983Z,38.40
2023-03-16T07:42:06.322Z,39.71
2023-03-16T07:44:52.079Z,38.02
2023-03-16T07:47:19.276Z,37.44
2023-03-16T07:49:46.108Z,36.65
2023-03-16T07:52:15.302Z,36.42
2023-03-16T07:54:43.343Z,34.21
2023-03-16T07:57:11.933Z,33.84
2023-03-16T07:59:41.805Z,33.99
2023-03-16T08:02:15.285Z,35.10
2023-03-16T08:04:42.522Z,33.96
2023-03-16T08:07:10.039Z,33.54
2023-03-16T08:09:55.326Z,34.55
2023-03-16T08:12:31.949Z,32.97
2023-03-16T08:14:59.187Z,33.00
2023-03-16T08:17:29.400Z,33.12
2023-03-16T08:19:57.509Z,32.00
2023-03-16T08:22:24.462Z,32.40
2023-03-16T08:24:51.977Z,32.13
2023-03-16T08:27:20.446Z,30.30
2023-03-16T08:29:53.786Z,31.16
2023-03-16T08:32:23.766Z,28.58
2023-03-16T08:34:50.437Z,30.18
2023-03-16T08:37:17.817Z,30.67
2023-03-16T08:39:45.552Z,30.52
2023-03-16T08:42:16.765Z,27.86
2023-03-16T08:44:47.798Z,28.88
2023-03-16T08:47:14.978Z,29.60
2023-03-16T08:49:44.773Z,28.21
2023-03-16T08:52:14.079Z,29.36
2023-03-16T08:54:47.105Z,28.09
2023-03-16T08:57:19.414Z,27.90
2023-03-16T08:59:45.940Z,26.15
2023-03-16T09:02:14.315Z,26.81
2023-03-16T09:04:40.841Z,24.88
2023-03-16T09:07:09.759Z,26.12
2023-03-16T09:09:36.635Z,29.88
2023-03-16T09:12:04.427Z,28.74
2023-03-16T09:14:31.114Z,27.02
2023-03-16T09:16:57.682Z,28.24
2023-03-16T09:19:25.013Z,28.29
2023-03-16T09:21:51.539Z,28.54
2023-03-16T09:24:18.006Z,28.16
2023-03-16T09:26:45.204Z,28.17
2023-03-16T09:29:11.976Z,29.86
2023-03-16T09:31:38.646Z,28.64
2023-03-16T09:34:05.199Z,25.33
2023-03-16T09:36:31.862Z,24.14
2023-03-16T09:38:58.349Z,24.71
2023-03-16T09:41:34.465Z,23.68
2023-03-16T09:44:19.963Z,23.89
2023-03-16T09:46:48.601Z,24.86
2023-03-16T09:49:16.778Z,23.95
2023-03-16T09:51:48.835Z,26.95
2023-03-16T09:54:39.096Z,25.94
2023-03-16T09:57:11.596Z,26.35
2023-03-16T09:59:38.027Z,25.57
2023-03-16T10:02:10.871Z,24.63
2023-03-16T10:04:46.258Z,24.95
2023-03-16T10:07:20.026Z,26.34
2023-03-16T10:09:49.513Z,25.69
2023-03-16T10:12:16.073Z,24.88
2023-03-16T10:14:42.738Z,26.04
2023-03-16T10:17:09.491Z,24.74
2023-03-16T10:19:51.246Z,25.04
2023-03-16T10:22:22.730Z,24.81
2023-03-16T10:25:01.982Z,26.86
2023-03-16T10:27:32.726Z,23.73
2023-03-16T10:30:01.222Z,24.30
2023-03-16T10:32:31.616Z,24.45
2023-03-16T10:35:01.244Z,25.00
2023-03-16T10:37:30.139Z,24.63
2023-03-16T10:39:57.263Z,21.84
2023-03-16T10:42:24.973Z,21.89
2023-03-16T10:44:56.917Z,22.13
2023-03-16T10:47:24.836Z,22.01
2023-03-16T10:49:51.495Z,24.60
2023-03-16T10:52:20.016Z,23.00
2023-03-16T10:55:11.140Z,21.46
2023-03-16T10:57:41.566Z,21.67
2023-03-16T11:00:13.953Z,21.16
2023-03-16T11:02:40.938Z,27.13
2023-03-16T11:05:26.016Z,21.97
2023-03-16T11:08:04.786Z,21.98
2023-03-16T11:10:36.129Z,21.47
2023-03-16T11:13:08.760Z,21.04
2023-03-16T11:15:47.906Z,25.82
2023-03-16T11:18:43.922Z,23.09
2023-03-16T11:21:19.517Z,21.13
2023-03-16T11:23:51.280Z,20.80
2023-03-16T11:26:21.309Z,20.76
2023-03-16T11:28:51.662Z,19.99
2023-03-16T11:31:27.585Z,20.17
2023-03-16T11:33:57.417Z,20.25
2023-03-16T11:36:29.900Z,21.41
2023-03-16T11:39:04.973Z,22.99
2023-03-16T11:41:44.407Z,20.50
2023-03-16T11:44:10.868Z,20.29
2023-03-16T11:46:37.345Z,20.76
2023-03-16T11:49:22.642Z,20.60
2023-03-16T11:51:58.713Z,21.53
2023-03-16T11:54:50.286Z,19.92
2023-03-16T11:57:29.066Z,20.74
2023-03-16T12:00:01.409Z,20.00
2023-03-16T12:02:48.393Z,21.14
2023-03-16T12:05:24.126Z,18.78
2023-03-16T12:07:54.115Z,19.57
2023-03-16T12:10:26.554Z,17.97
2023-03-16T12:13:00.514Z,19.76
2023-03-16T12:15:30.925Z,19.23
2023-03-16T12:18:02.755Z,20.11
2023-03-16T12:20:45.970Z,19.02
2023-03-16T12:23:32.738Z,18.10
2023-03-16T12:26:00.426Z,18.87
2023-03-16T12:28:31.467Z,17.72
2023-03-16T12:31:09.373Z,18.06
2023-03-16T12:33:50.441Z,21.50
2023-03-16T12:36:16.913Z,19.50
2023-03-16T12:38:43.369Z,18.06
2023-03-16T12:41:17.971Z,17.71
2023-03-16T12:44:04.254Z,18.04
2023-03-16T12:46:49.734Z,18.21
2023-03-16T12:49:16.723Z,18.13
2023-03-16T12:51:43.981Z,18.52
2023-03-16T12:54:21.211Z,18.85
2023-03-16T12:56:49.379Z,19.06
2023-03-16T12:59:18.373Z,17.09
2023-03-16T13:01:45.894Z,17.05
2023-03-16T13:04:15.521Z,16.71
2023-03-16T13:06:43.618Z,19.63
2023-03-16T13:09:11.186Z,16.47
2023-03-16T13:11:49.995Z,18.10
2023-03-16T13:14:38.251Z,18.42
2023-03-16T13:17:06.472Z,19.43
2023-03-16T13:19:37.807Z,18.40
2023-03-16T13:22:06.139Z,18.14
2023-03-16T13:24:37.491Z,17.71
2023-03-16T13:27:06.491Z,17.47
2023-03-16T13:29:33.063Z,18.00
2023-03-16T13:32:00.982Z,18.43
2023-03-16T13:34:38.225Z,17.90
2023-03-16T13:37:12.307Z,18.14
2023-03-16T13:39:40.685Z,18.26
2023-03-16T13:42:17.864Z,18.78
2023-03-16T13:44:44.618Z,17.94
2023-03-16T13:47:20.377Z,18.70
2023-03-16T13:49:48.721Z,18.59
2023-03-16T13:52:26.780Z,17.73
2023-03-16T13:54:53.618Z,19.06
2023-03-16T13:57:24.125Z,18.92
2023-03-16T13:59:50.613Z,18.38
2023-03-16T14:02:18.189Z,20.56
2023-03-16T14:04:44.739Z,18.47
2023-03-16T14:07:18.399Z,18.45
2023-03-16T14:09:46.711Z,19.47
2023-03-16T14:12:14.697Z,18.45
2023-03-16T14:14:41.615Z,19.53
2023-03-16T14:17:12.432Z,18.41
2023-03-16T14:19:45.625Z,19.32
2023-03-16T14:22:18.128Z,19.64
2023-03-16T14:24:46.088Z,19.74
2023-03-16T14:27:15.942Z,19.35
2023-03-16T14:29:43.364Z,17.81
2023-03-16T14:32:30.064Z,18.15
2023-03-16T14:35:11.022Z,18.38
2023-03-16T14:37:38.382Z,18.45
2023-03-16T14:40:20.666Z,17.90
2023-03-16T14:42:47.436Z,18.64
2023-03-16T14:45:15.505Z,18.96
2023-03-16T14:47:43.060Z,19.81
2023-03-16T14:50:13.709Z,19.02
2023-03-16T14:52:40.618Z,18.95
2023-03-16T14:55:12.100Z,18.97
2023-03-16T14:57:40.468Z,18.83
2023-03-16T15:00:10.284Z,18.76
2023-03-16T15:02:36.865Z,18.21
2023-03-16T15:05:03.755Z,19.52
2023-03-16T15:07:32.282Z,18.57
2023-03-16T15:10:22.064Z,19.05
2023-03-16T15:12:54.580Z,19.56
2023-03-16T15:15:23.024Z,19.31
2023-03-16T15:17:50.657Z,19.54
2023-03-16T15:20:18.585Z,18.93
2023-03-16T15:22:45.840Z,20.23
2023-03-16T15:25:27.987Z,19.92
2023-03-16T15:27:54.559Z,19.49
2023-03-16T15:30:25.812Z,20.05
2023-03-16T15:32:52.839Z,20.25
2023-03-16T15:35:20.052Z,20.03
2023-03-16T15:37:46.980Z,20.03
2023-03-16T15:40:24.515Z,20.45
2023-03-16T15:42:51.616Z,20.24
2023-03-16T15:45:20.548Z,20.56
2023-03-16T15:47:51.125Z,20.67
2023-03-16T15:50:18.899Z,21.79
2023-03-16T15:52:59.589Z,21.81
2023-03-16T15:55:33.187Z,22.32
2023-03-16T15:58:00.699Z,21.91
2023-03-16T16:00:33.096Z,22.41
2023-03-16T16:02:59.997Z,23.12
2023-03-16T16:05:27.251Z,22.49
2023-03-16T16:07:54.261Z,23.54
2023-03-16T16:10:21.097Z,22.86
2023-03-16T16:12:51.508Z,23.60
2023-03-16T16:15:21.750Z,23.56
2023-03-16T16:18:09.949Z,24.24
2023-03-16T16:20:35.830Z,24.28
2023-03-16T16:23:03.298Z,23.73
2023-03-16T16:25:36.274Z,24.30
2023-03-16T16:28:02.815Z,24.65
2023-03-16T16:30:31.275Z,24.70
2023-03-16T16:32:58.928Z,24.49
2023-03-16T16:35:27.966Z,25.39
2023-03-16T16:37:54.717Z,25.67
2023-03-16T16:40:25.949Z,25.86
2023-03-16T16:42:53.481Z,26.42
2023-03-16T16:45:21.812Z,26.06
2023-03-16T16:47:52.063Z,25.65
2023-03-16T16:50:23.009Z,26.02
2023-03-16T16:52:50.112Z,26.94
2023-03-16T16:55:16.832Z,26.60
2023-03-16T16:57:43.660Z,26.96
2023-03-16T17:00:17.378Z,28.33
2023-03-16T17:02:45.233Z,29.18
2023-03-16T17:05:30.032Z,28.21
2023-03-16T17:07:56.698Z,28.14
2023-03-16T17:10:27.134Z,29.28
2023-03-16T17:12:55.248Z,28.87
2023-03-16T17:15:24.904Z,29.72
2023-03-16T17:17:52.881Z,31.25
2023-03-16T17:20:20.800Z,29.79
2023-03-16T17:22:48.430Z,31.50
2023-03-16T17:25:16.424Z,29.94
2023-03-16T17:27:44.413Z,31.27
2023-03-16T17:30:32.216Z,30.17
2023-03-16T17:33:12.318Z,31.80
2023-03-16T17:35:39.342Z,31.02
2023-03-16T17:38:19.230Z,29.96
2023-03-16T17:40:47.037Z,31.57
2023-03-16T17:43:15.135Z,31.43
2023-03-16T17:45:41.841Z,31.50
2023-03-16T17:48:16.594Z,32.74
2023-03-16T17:50:46.074Z,32.55
2023-03-16T17:53:16.649Z,33.18
2023-03-16T17:55:43.799Z,33.11
2023-03-16T17:58:29.005Z,31.07
2023-03-16T18:00:56.302Z,32.54
2023-03-16T18:03:25.122Z,33.08
2023-03-16T18:05:51.821Z,33.30
2023-03-16T18:08:23.754Z,34.36
2023-03-16T18:10:51.785Z,33.87
2023-03-16T18:13:18.308Z,34.44
2023-03-16T18:15:46.743Z,34.68
2023-03-16T18:18:17.637Z,34.72
2023-03-16T18:20:44.741Z,35.59
2023-03-16T18:23:30.706Z,34.80
2023-03-16T18:26:03.596Z,35.43
2023-03-16T18:28:31.147Z,35.30
2023-03-16T18:30:58.319Z,36.20
2023-03-16T18:33:33.604Z,37.25
2023-03-16T18:36:01.527Z,36.57
2023-03-16T18:38:30.652Z,37.18
2023-03-16T18:40:57.795Z,38.70
2023-03-16T18:43:26.796Z,38.68
2023-03-16T18:45:54.884Z,38.99
2023-03-16T18:48:29.454Z,38.51
2023-03-16T18:50:56.463Z,39.04
2023-03-16T18:53:23.059Z,39.66
2023-03-16T18:55:50.275Z,40.31
2023-03-16T18:58:18.601Z,40.97
2023-03-16T19:00:49.315Z,41.56
2023-03-16T19:03:38.900Z,41.50
2023-03-16T19:06:06.193Z,41.67
2023-03-16T19:08:34.335Z,42.25
2023-03-16T19:11:01.946Z,41.74
2023-03-16T19:13:28.448Z,41.65
2023-03-16T19:15:55.895Z,41.59
2023-03-16T19:18:24.737Z,41.61
2023-03-16T19:20:52.692Z,42.76
2023-03-16T19:23:23.540Z,43.11
2023-03-16T19:25:50.771Z,42.95
2023-03-16T19:28:22.647Z,43.70
2023-03-16T19:30:49.177Z,42.89
2023-03-16T19:33:20.885Z,44.02
2023-03-16T19:35:51.914Z,43.92
2023-03-16T19:38:19.268Z,44.33
2023-03-16T19:40:47.306Z,43.79
2023-03-16T19:43:18.490Z,44.56
2023-03-16T19:45:45.607Z,43.23
2023-03-16T19:48:16.619Z,44.46
2023-03-16T19:50:43.105Z,44.55
2023-03-16T19:53:14.722Z,43.33
2023-03-16T19:55:41.367Z,43.90
2023-03-16T19:58:14.790Z,44.10
2023-03-16T20:00:41.934Z,44.14
2023-03-16T20:03:11.009Z,45.64
2023-03-16T20:05:39.639Z,45.74
2023-03-16T20:08:13.882Z,46.21
2023-03-16T20:10:40.730Z,45.79
2023-03-16T20:13:10.472Z,46.03
2023-03-16T20:15:37.541Z,45.52
2023-03-16T20:18:04.556Z,44.54
2023-03-16T20:20:33.551Z,46.28
2023-03-16T20:23:00.410Z,45.71
2023-03-16T20:25:30.653Z,44.87
2023-03-16T20:27:59.585Z,47.01
2023-03-16T20:30:26.609Z,47.38
2023-03-16T20:32:53.217Z,47.24
2023-03-16T20:35:22.774Z,46.99
2023-03-16T20:37:50.178Z,46.50
2023-03-16T20:40:17.133Z,46.67
2023-03-16T20:42:43.734Z,46.27
2023-03-16T20:45:30.967Z,46.97
2023-03-16T20:47:57.606Z,46.02
2023-03-16T20:50:24.261Z,46.43
2023-03-16T20:52:51.520Z,47.53
2023-03-16T20:55:20.178Z,46.56
2023-03-16T20:57:47.641Z,47.49
2023-03-16T21:00:17.776Z,46.64
2023-03-16T21:02:44.564Z,46.72
2023-03-16T21:05:12.527Z,47.53
2023-03-16T21:07:39.033Z,47.14
2023-03-16T21:10:05.777Z,47.60
2023-03-16T21:12:33.662Z,47.25
2023-03-16T21:15:02.473Z,48.51
2023-03-16T21:17:31.228Z,48.12
2023-03-16T21:19:58.619Z,49.43
2023-03-16T21:22:29.965Z,49.51
2023-03-16T21:24:56.543Z,48.29
2023-03-16T21:27:30.758Z,47.67
2023-03-16T21:29:58.504Z,49.55
2023-03-16T21:32:26.584Z,48.27
2023-03-16T21:34:53.867Z,48.91
2023-03-16T21:37:22.318Z,48.86
2023-03-16T21:39:49.156Z,48.39
2023-03-16T21:42:17.211Z,49.36
2023-03-16T21:44:43.970Z,49.58
2023-03-16T21:47:22.079Z,48.79
2023-03-16T21:49:48.676Z,49.47
2023-03-16T21:52:25.409Z,49.56
2023-03-16T21:54:52.583Z,49.04
2023-03-16T21:57:19.760Z,49.56
2023-03-16T21:59:46.495Z,49.89
2023-03-16T22:02:23.638Z,50.32
2023-03-16T22:04:51.099Z,50.99
2023-03-16T22:07:18.263Z,49.93
2023-03-16T22:09:44.713Z,51.00
2023-03-16T22:12:13.414Z,51.57
2023-03-16T22:14:40.367Z,51.22
2023-03-16T22:17:08.508Z,50.69
2023-03-16T22:19:35.215Z,50.30
2023-03-16T22:22:01.739Z,50.73
2023-03-16T22:24:30.010Z,50.64
2023-03-16T22:26:56.788Z,50.65
2023-03-16T22:29:30.836Z,50.33
2023-03-16T22:32:05.456Z,51.61
2023-03-16T22:34:52.372Z,52.04
2023-03-16T22:37:26.308Z,51.59
2023-03-16T22:39:53.585Z,50.85
2023-03-16T22:42:36.222Z,51.18
2023-03-16T22:45:03.600Z,52.14
2023-03-16T22:47:33.830Z,53.05
2023-03-16T22:50:00.368Z,52.46
2023-03-16T22:52:29.705Z,52.70
2023-03-16T22:54:57.025Z,51.87
2023-03-16T22:57:23.545Z,52.86
2023-03-16T22:59:50.925Z,52.96
2023-03-16T23:02:19.510Z,52.69
2023-03-16T23:04:46.047Z,52.15
2023-03-16T23:07:12.965Z,52.54
2023-03-16T23:09:39.513Z,54.08
2023-03-16T23:12:13.643Z,54.21
2023-03-16T23:14:40.339Z,54.72
2023-03-16T23:17:17.731Z,55.32
2023-03-16T23:19:44.719Z,53.83
2023-03-16T23:22:11.529Z,54.80
2023-03-16T23:24:38.220Z,55.39
2023-03-16T23:27:07.157Z,55.17
2023-03-16T23:29:33.913Z,54.75
2023-03-16T23:32:01.184Z,54.92
2023-03-16T23:34:27.785Z,54.86
2023-03-16T23:36:54.322Z,53.80
2023-03-16T23:39:20.823Z,55.39
2023-03-16T23:41:48.497Z,55.01
2023-03-16T23:44:20.597Z,54.44
2023-03-16T23:46:47.398Z,53.50
2023-03-16T23:49:19.030Z,54.11
2023-03-16T23:51:46.005Z,55.25
2023-03-16T23:54:23.196Z,55.38
2023-03-16T23:56:50.601Z,55.50
2023-03-16T23:59:17.458Z,55.61
